createdAt,value
2022-10-13T00:03:50.128Z,9.56
2022-10-13T00:08:56.648Z,9.59
2022-10-13T00:14:01.599Z,9.60
2022-10-13T00:19:06.328Z,9.59
2022-10-13T00:24:12.133Z,9.50
2022-10-13T00:29:14.919Z,9.41
2022-10-13T00:34:18.860Z,9.36
2022-10-13T00:39:21.639Z,9.39
2022-10-13T00:44:54.549Z,9.43
2022-10-13T00:49:59.247Z,9.43
2022-10-13T00:55:04.252Z,9.48
2022-10-13T01:00:08.607Z,9.55
2022-10-13T01:05:12.873Z,9.60
2022-10-13T01:10:24.609Z,9.67
2022-10-13T01:15:33.284Z,9.72
2022-10-13T01:20:51.561Z,9.71
2022-10-13T01:26:24.825Z,9.72
2022-10-13T01:31:36.369Z,9.73
2022-10-13T01:36:49.677Z,9.72
2022-10-13T01:41:56.750Z,9.71
2022-10-13T01:47:03.461Z,9.63
2022-10-13T01:52:17.383Z,9.55
2022-10-13T01:57:34.635Z,9.38
2022-10-13T02:02:46.172Z,9.31
2022-10-13T02:07:55.332Z,9.26
2022-10-13T02:13:05.104Z,9.30
2022-10-13T02:18:11.408Z,9.29
2022-10-13T02:23:17.201Z,9.25
2022-10-13T02:28:20.835Z,9.23
2022-10-13T02:33:25.048Z,9.24
2022-10-13T02:38:27.824Z,9.36
2022-10-13T02:43:30.689Z,9.33
2022-10-13T02:48:34.792Z,9.33
2022-10-13T02:53:37.559Z,9.37
2022-10-13T02:58:40.119Z,9.41
2022-10-13T03:03:44.731Z,9.43
2022-10-13T03:08:47.485Z,9.50
2022-10-13T03:20:19.934Z,9.59
2022-10-13T03:25:22.873Z,9.63
2022-10-13T03:30:26.546Z,9.61
2022-10-13T03:35:30.598Z,9.69
2022-10-13T03:40:33.383Z,9.77
2022-10-13T03:45:35.836Z,9.79
2022-10-13T03:50:39.886Z,9.80
2022-10-13T03:55:42.630Z,9.78
2022-10-13T04:00:45.181Z,9.75
2022-10-13T04:05:49.232Z,9.69
2022-10-13T04:10:59.873Z,9.64
2022-10-13T04:16:03.575Z,9.65
2022-10-13T04:21:10.291Z,9.63
2022-10-13T04:26:18.280Z,9.62
2022-10-13T04:31:22.749Z,9.60
2022-10-13T04:36:27.670Z,9.61
2022-10-13T04:41:30.476Z,9.62
2022-10-13T04:46:33.188Z,9.54
2022-10-13T04:51:37.300Z,9.57
2022-10-13T04:56:40.047Z,9.58
2022-10-13T05:01:43.163Z,9.62
2022-10-13T05:07:16.069Z,9.67
2022-10-13T05:12:13.383Z,9.67
2022-10-13T05:17:15.978Z,9.62
2022-10-13T05:22:20.258Z,9.66
2022-10-13T05:27:23.395Z,9.63
2022-10-13T05:32:26.001Z,9.62
2022-10-13T05:37:30.156Z,9.62
2022-10-13T05:42:33.312Z,9.61
2022-10-13T05:47:36.383Z,9.65
2022-10-13T05:52:40.696Z,9.78
2022-10-13T05:57:46.648Z,9.85
2022-10-13T06:02:55.958Z,10.01
2022-10-13T06:08:01.028Z,10.13
2022-10-13T06:13:03.802Z,10.27
2022-10-13T06:18:08.448Z,10.24
2022-10-13T06:23:12.637Z,10.23
2022-10-13T06:28:15.865Z,10.38
2022-10-13T06:33:18.633Z,10.57
2022-10-13T06:38:22.747Z,10.74
2022-10-13T06:43:32.404Z,10.86
2022-10-13T06:48:39.833Z,10.93
2022-10-13T06:53:44.066Z,11.01
2022-10-13T06:58:46.902Z,10.97
2022-10-13T07:03:50.459Z,11.00
2022-10-13T07:08:58.139Z,10.96
2022-10-13T07:19:08.895Z,11.13
2022-10-13T07:24:15.813Z,11.17
2022-10-13T07:29:18.627Z,11.20
2022-10-13T07:34:21.993Z,11.39
2022-10-13T07:39:26.119Z,11.55
2022-10-13T07:44:28.973Z,11.55
2022-10-13T07:49:31.934Z,11.56
2022-10-13T07:54:36.519Z,11.60
2022-10-13T07:59:40.071Z,11.94
2022-10-13T08:04:45.959Z,12.64
2022-10-13T08:09:50.124Z,13.15
2022-10-13T08:14:52.894Z,13.43
2022-10-13T08:19:56.211Z,13.70
2022-10-13T08:25:03.481Z,14.03
2022-10-13T08:30:07.653Z,13.90
2022-10-13T08:35:12.551Z,13.68
2022-10-13T08:40:20.365Z,13.67
2022-10-13T08:45:42.814Z,13.55
2022-10-13T08:50:48.702Z,13.75
2022-10-13T08:55:57.833Z,14.08
2022-10-13T09:01:13.384Z,14.23
2022-10-13T09:06:21.635Z,14.50
2022-10-13T09:11:28.308Z,14.31
2022-10-13T09:16:35.456Z,14.57
2022-10-13T09:21:40.096Z,14.64
2022-10-13T09:26:45.754Z,14.80
2022-10-13T09:31:48.852Z,14.73
2022-10-13T09:37:00.113Z,14.88
2022-10-13T09:42:23.936Z,14.64
2022-10-13T09:47:28.756Z,14.79
2022-10-13T09:52:31.778Z,14.93
2022-10-13T09:57:43.613Z,15.73
2022-10-13T10:02:53.519Z,15.07
2022-10-13T10:08:01.689Z,15.05
2022-10-13T10:13:11.798Z,14.79
2022-10-13T10:18:20.144Z,14.90
2022-10-13T10:23:33.763Z,14.87
2022-10-13T10:28:58.512Z,15.24
2022-10-13T10:34:15.483Z,15.52
2022-10-13T10:39:24.412Z,15.32
2022-10-13T10:44:31.857Z,15.45
2022-10-13T10:49:36.463Z,15.60
2022-10-13T10:54:48.388Z,15.45
2022-10-13T11:00:00.760Z,15.43
2022-10-13T11:05:06.386Z,15.60
2022-10-13T11:10:21.977Z,15.27
2022-10-13T11:15:31.097Z,15.51
2022-10-13T11:20:58.357Z,14.93
2022-10-13T11:26:21.101Z,15.43
2022-10-13T11:31:33.466Z,15.73
2022-10-13T11:36:47.240Z,15.89
2022-10-13T11:41:58.469Z,16.27
2022-10-13T11:47:12.928Z,15.88
2022-10-13T11:52:46.354Z,15.79
2022-10-13T11:57:49.191Z,15.99
2022-10-13T12:02:54.597Z,16.13
2022-10-13T12:08:01.964Z,16.52
2022-10-13T12:13:05.166Z,16.35
2022-10-13T12:18:23.538Z,15.97
2022-10-13T12:23:29.756Z,16.16
2022-10-13T12:28:49.502Z,16.17
2022-10-13T12:33:58.376Z,16.17
2022-10-13T12:39:04.833Z,16.64
2022-10-13T12:44:12.661Z,16.73
2022-10-13T12:49:22.533Z,16.90
2022-10-13T12:54:29.853Z,18.60
2022-10-13T12:59:34.717Z,20.13
2022-10-13T13:04:44.677Z,20.38
2022-10-13T13:10:02.097Z,19.55
2022-10-13T13:15:20.905Z,20.19
2022-10-13T13:20:29.096Z,19.56
2022-10-13T13:25:31.905Z,18.92
2022-10-13T13:30:35.457Z,17.65
2022-10-13T13:35:39.625Z,17.48
2022-10-13T13:40:42.477Z,17.29
2022-10-13T13:45:48.421Z,17.80
2022-10-13T13:50:52.556Z,18.89
2022-10-13T13:55:55.340Z,18.07
2022-10-13T14:01:00.292Z,17.36
2022-10-13T14:06:04.507Z,17.37
2022-10-13T14:11:07.810Z,17.40
2022-10-13T14:16:16.105Z,17.41
2022-10-13T14:21:20.210Z,17.14
2022-10-13T14:26:23.818Z,16.85
2022-10-13T14:31:26.631Z,16.84
2022-10-13T14:36:30.776Z,16.85
2022-10-13T14:41:33.583Z,16.66
2022-10-13T14:46:36.354Z,16.41
2022-10-13T14:51:40.593Z,16.41
2022-10-13T14:56:44.555Z,16.27
2022-10-13T15:01:49.229Z,16.02
2022-10-13T15:06:53.541Z,16.16
2022-10-13T15:11:56.344Z,16.03
2022-10-13T15:16:59.146Z,16.08
2022-10-13T15:22:03.561Z,15.98
2022-10-13T15:27:06.398Z,15.72
2022-10-13T15:32:11.632Z,15.20
2022-10-13T15:37:15.829Z,15.45
2022-10-13T15:42:19.052Z,15.39
2022-10-13T15:47:21.955Z,15.51
2022-10-13T15:52:28.682Z,15.44
2022-10-13T15:57:35.081Z,15.13
2022-10-13T16:02:37.844Z,14.94
2022-10-13T16:07:42.351Z,14.58
2022-10-13T16:12:49.398Z,14.26
2022-10-13T16:17:53.248Z,14.36
2022-10-13T16:22:57.434Z,13.90
2022-10-13T16:28:00.774Z,13.38
2022-10-13T16:33:04.038Z,13.42
2022-10-13T16:38:08.159Z,13.30
2022-10-13T16:43:10.903Z,13.08
2022-10-13T16:48:14.975Z,12.83
2022-10-13T16:53:19.378Z,12.90
2022-10-13T16:58:22.101Z,12.83
2022-10-13T17:03:24.888Z,12.75
2022-10-13T17:08:29.082Z,12.79
2022-10-13T17:13:35.213Z,12.78
2022-10-13T17:18:37.944Z,12.82
2022-10-13T17:23:47.351Z,12.85
2022-10-13T17:28:51.371Z,12.80
2022-10-13T17:33:54.601Z,12.78
2022-10-13T17:39:04.068Z,12.80
2022-10-13T17:44:06.840Z,12.91
2022-10-13T17:49:12.546Z,12.89
2022-10-13T17:54:16.973Z,12.82
2022-10-13T17:59:20.018Z,12.79
2022-10-13T18:04:23.654Z,12.75
2022-10-13T18:09:27.948Z,12.82
2022-10-13T18:14:30.740Z,12.89
2022-10-13T18:19:37.816Z,12.91
2022-10-13T18:24:44.286Z,12.92
2022-10-13T18:29:47.024Z,12.95
2022-10-13T18:34:49.745Z,12.95
2022-10-13T18:39:53.824Z,12.95
2022-10-13T18:44:56.535Z,12.99
2022-10-13T18:49:59.311Z,13.03
2022-10-13T18:55:03.469Z,13.05
2022-10-13T19:00:08.604Z,13.01
2022-10-13T19:05:11.340Z,13.01
2022-10-13T19:10:15.547Z,12.90
2022-10-13T19:15:18.516Z,12.79
2022-10-13T19:20:21.257Z,12.70
2022-10-13T19:25:26.399Z,12.67
2022-10-13T19:30:29.225Z,12.67
2022-10-13T19:35:32.132Z,12.67
2022-10-13T19:40:41.490Z,12.73
2022-10-13T19:45:47.268Z,12.78
2022-10-13T19:50:50.749Z,12.78
2022-10-13T19:55:54.888Z,12.73
2022-10-13T20:01:03.057Z,12.69
2022-10-13T20:06:07.172Z,12.69
2022-10-13T20:11:23.038Z,12.64
2022-10-13T20:16:26.852Z,12.60
2022-10-13T20:21:31.160Z,12.60
2022-10-13T20:26:35.302Z,12.63
2022-10-13T20:31:38.135Z,12.68
2022-10-13T20:36:41.694Z,12.71
2022-10-13T20:41:45.978Z,12.70
2022-10-13T20:46:49.853Z,12.64
2022-10-13T20:51:52.605Z,12.64
2022-10-13T20:56:57.792Z,12.60
2022-10-13T21:02:00.508Z,12.64
2022-10-13T21:07:03.228Z,12.44
2022-10-13T21:12:08.108Z,12.08
2022-10-13T21:17:10.870Z,12.16
2022-10-13T21:22:13.603Z,12.12
2022-10-13T21:27:17.937Z,12.12
2022-10-13T21:32:20.836Z,12.10
2022-10-13T21:37:24.777Z,12.13
2022-10-13T21:42:30.539Z,12.06
2022-10-13T21:47:34.494Z,12.12
2022-10-13T21:52:37.420Z,12.08
2022-10-13T21:57:41.525Z,12.07
2022-10-13T22:02:44.280Z,12.13
2022-10-13T22:07:47.489Z,12.16
2022-10-13T22:12:51.660Z,12.14
2022-10-13T22:17:54.473Z,12.17
2022-10-13T22:22:57.922Z,12.22
2022-10-13T22:28:02.082Z,12.22
2022-10-13T22:33:05.217Z,12.23
2022-10-13T22:38:09.789Z,12.25
2022-10-13T22:43:14.015Z,12.25
2022-10-13T22:48:16.818Z,12.23
2022-10-13T22:53:19.569Z,12.26
2022-10-13T22:58:23.710Z,12.27
2022-10-13T23:03:28.261Z,12.30
2022-10-13T23:08:35.271Z,12.29
2022-10-13T23:13:39.654Z,12.32
2022-10-13T23:18:42.488Z,12.04
2022-10-13T23:23:57.803Z,12.29
2022-10-13T23:29:01.986Z,12.22
2022-10-13T23:34:04.828Z,12.32
2022-10-13T23:39:08.287Z,12.26
2022-10-13T23:44:12.435Z,12.09
2022-10-13T23:49:15.332Z,12.15
2022-10-13T23:54:18.126Z,12.07
2022-10-13T23:59:22.292Z,12.04
